createdAt,value
2023-01-13T00:00:15.767Z,61.13
2023-01-13T00:01:15.723Z,62.29
2023-01-13T00:02:15.710Z,62.43
2023-01-13T00:03:15.687Z,62.56
2023-01-13T00:04:15.714Z,61.72
2023-01-13T00:05:15.658Z,62.36
2023-01-13T00:06:15.673Z,60.84
2023-01-13T00:07:15.635Z,61.50
2023-01-13T00:08:15.629Z,60.73
2023-01-13T00:09:15.621Z,61.24
2023-01-13T00:10:16.598Z,61.19
2023-01-13T00:11:15.616Z,63.77
2023-01-13T00:12:15.576Z,60.73
2023-01-13T00:13:15.573Z,61.64
2023-01-13T00:14:15.564Z,62.69
2023-01-13T00:15:15.551Z,61.78
2023-01-13T00:16:15.682Z,62.90
2023-01-13T00:17:15.534Z,62.11
2023-01-13T00:18:15.531Z,62.81
2023-01-13T00:19:15.555Z,61.29
2023-01-13T00:20:15.503Z,61.98
2023-01-13T00:21:15.514Z,62.07
2023-01-13T00:22:15.515Z,63.51
2023-01-13T00:23:15.477Z,62.82
2023-01-13T00:24:15.469Z,60.95
2023-01-13T00:25:15.469Z,61.60
2023-01-13T00:26:15.474Z,61.63
2023-01-13T00:27:15.441Z,62.43
2023-01-13T00:28:15.428Z,61.26
2023-01-13T00:29:15.436Z,62.20
2023-01-13T00:30:15.405Z,61.75
2023-01-13T00:31:15.479Z,62.53
2023-01-13T00:32:15.379Z,59.48
2023-01-13T00:33:15.375Z,59.88
2023-01-13T00:34:15.368Z,61.45
2023-01-13T00:35:15.366Z,60.08
2023-01-13T00:36:15.355Z,60.72
2023-01-13T00:37:15.345Z,61.27
2023-01-13T00:38:15.344Z,61.57
2023-01-13T00:39:15.340Z,62.50
2023-01-13T00:40:15.306Z,62.21
2023-01-13T00:41:15.328Z,61.90
2023-01-13T00:42:15.289Z,62.85
2023-01-13T00:43:15.281Z,61.64
2023-01-13T00:44:15.273Z,61.36
2023-01-13T00:45:15.257Z,62.73
2023-01-13T00:46:15.336Z,60.85
2023-01-13T00:47:15.249Z,61.17
2023-01-13T00:48:15.226Z,59.41
2023-01-13T00:49:15.223Z,61.92
2023-01-13T00:50:15.207Z,61.75
2023-01-13T00:51:15.232Z,60.35
2023-01-13T00:52:15.193Z,63.27
2023-01-13T00:53:15.193Z,61.40
2023-01-13T00:54:15.166Z,61.50
2023-01-13T00:55:15.154Z,60.94
2023-01-13T00:56:15.175Z,61.33
2023-01-13T00:57:15.142Z,60.76
2023-01-13T00:58:15.129Z,60.75
2023-01-13T00:59:15.115Z,62.97
2023-01-13T01:00:15.110Z,61.37
2023-01-13T01:01:15.260Z,60.87
2023-01-13T01:02:15.182Z,60.42
2023-01-13T01:03:15.081Z,59.38
2023-01-13T01:04:15.054Z,61.32
2023-01-13T01:05:15.061Z,58.94
2023-01-13T01:06:15.066Z,60.19
2023-01-13T01:07:15.038Z,61.73
2023-01-13T01:08:15.019Z,61.85
2023-01-13T01:09:15.017Z,62.13
2023-01-13T01:10:15.008Z,63.85
2023-01-13T01:11:15.020Z,62.63
2023-01-13T01:12:14.990Z,61.10
2023-01-13T01:13:15.976Z,60.29
2023-01-13T01:14:14.968Z,60.44
2023-01-13T01:15:14.953Z,61.29
2023-01-13T01:16:15.004Z,61.81
2023-01-13T01:17:14.938Z,61.81
2023-01-13T01:18:14.925Z,61.84
2023-01-13T01:19:16.359Z,62.04
2023-01-13T01:20:14.897Z,62.43
2023-01-13T01:21:14.924Z,60.81
2023-01-13T01:22:14.884Z,61.48
2023-01-13T01:23:14.881Z,59.23
2023-01-13T01:24:14.867Z,60.85
2023-01-13T01:25:14.858Z,61.28
2023-01-13T01:26:14.869Z,60.88
2023-01-13T01:27:14.837Z,60.13
2023-01-13T01:28:14.817Z,60.41
2023-01-13T01:29:14.826Z,61.84
2023-01-13T01:30:14.846Z,59.39
2023-01-13T01:31:14.825Z,61.90
2023-01-13T01:32:14.805Z,61.10
2023-01-13T01:33:14.779Z,62.02
2023-01-13T01:34:14.765Z,61.24
2023-01-13T01:35:14.759Z,61.40
2023-01-13T01:36:14.746Z,61.85
2023-01-13T01:37:14.754Z,61.22
2023-01-13T01:38:14.724Z,61.51
2023-01-13T01:39:14.717Z,62.78
2023-01-13T01:40:14.710Z,60.76
2023-01-13T01:41:14.722Z,61.57
2023-01-13T01:42:14.775Z,61.37
2023-01-13T01:43:14.698Z,59.82
2023-01-13T01:44:14.673Z,58.99
2023-01-13T01:45:14.660Z,60.08
2023-01-13T01:46:14.682Z,62.21
2023-01-13T01:47:14.676Z,63.51
2023-01-13T01:48:14.628Z,63.79
2023-01-13T01:49:14.626Z,61.37
2023-01-13T01:50:14.617Z,60.90
2023-01-13T01:51:14.606Z,61.64
2023-01-13T01:52:14.614Z,59.06
2023-01-13T01:53:14.584Z,61.35
2023-01-13T01:54:14.578Z,61.67
2023-01-13T01:55:14.633Z,59.45
2023-01-13T01:56:14.554Z,61.13
2023-01-13T01:57:14.570Z,62.39
2023-01-13T01:58:14.540Z,60.78
2023-01-13T01:59:14.529Z,60.27
2023-01-13T02:00:14.511Z,59.89
2023-01-13T02:01:14.587Z,60.14
2023-01-13T02:02:14.598Z,60.43
2023-01-13T02:03:14.481Z,62.19
2023-01-13T02:04:14.482Z,62.19
2023-01-13T02:05:14.491Z,60.74
2023-01-13T02:06:14.446Z,62.69
2023-01-13T02:07:14.460Z,62.15
2023-01-13T02:08:14.451Z,62.93
2023-01-13T02:09:14.426Z,62.65
2023-01-13T02:10:14.410Z,61.93
2023-01-13T02:11:14.408Z,60.55
2023-01-13T02:12:14.418Z,60.02
2023-01-13T02:13:14.408Z,62.31
2023-01-13T02:14:14.371Z,62.90
2023-01-13T02:15:14.361Z,61.55
2023-01-13T02:16:14.394Z,60.69
2023-01-13T02:17:14.382Z,62.07
2023-01-13T02:18:14.327Z,60.99
2023-01-13T02:19:14.329Z,62.99
2023-01-13T02:20:14.326Z,61.57
2023-01-13T02:21:15.305Z,61.25
2023-01-13T02:22:14.314Z,60.75
2023-01-13T02:23:14.293Z,62.03
2023-01-13T02:24:14.270Z,62.71
2023-01-13T02:25:14.282Z,62.42
2023-01-13T02:26:14.248Z,60.86
2023-01-13T02:27:14.262Z,62.10
2023-01-13T02:28:14.259Z,62.31
2023-01-13T02:29:14.226Z,62.22
2023-01-13T02:30:14.199Z,62.76
2023-01-13T02:31:14.253Z,61.71
2023-01-13T02:32:14.231Z,60.25
2023-01-13T02:33:14.190Z,60.36
2023-01-13T02:34:14.159Z,61.21
2023-01-13T02:35:14.160Z,60.25
2023-01-13T02:36:14.151Z,61.53
2023-01-13T02:37:14.164Z,61.19
2023-01-13T02:38:14.123Z,62.39
2023-01-13T02:39:14.136Z,62.88
2023-01-13T02:40:14.127Z,60.94
2023-01-13T02:41:14.097Z,61.43
2023-01-13T02:42:14.114Z,61.25
2023-01-13T02:43:14.089Z,62.86
2023-01-13T02:44:15.022Z,63.12
2023-01-13T02:45:14.062Z,62.66
2023-01-13T02:46:14.044Z,61.22
2023-01-13T02:47:14.057Z,60.53
2023-01-13T02:48:14.058Z,62.21
2023-01-13T02:49:14.016Z,61.53
2023-01-13T02:50:13.999Z,61.08
2023-01-13T02:51:13.996Z,60.18
2023-01-13T02:52:14.009Z,58.79
2023-01-13T02:53:13.983Z,62.52
2023-01-13T02:54:13.958Z,60.49
2023-01-13T02:55:13.984Z,62.74
2023-01-13T02:56:13.949Z,61.78
2023-01-13T02:57:13.976Z,62.01
2023-01-13T02:58:13.917Z,61.75
2023-01-13T02:59:13.920Z,61.63
2023-01-13T03:00:13.800Z,61.21
2023-01-13T03:01:13.858Z,61.43
2023-01-13T03:02:13.989Z,61.43
2023-01-13T03:03:13.766Z,60.77
2023-01-13T03:04:13.767Z,61.82
2023-01-13T03:05:13.739Z,63.56
2023-01-13T03:06:14.731Z,62.46
2023-01-13T03:07:13.762Z,61.77
2023-01-13T03:08:13.723Z,63.24
2023-01-13T03:09:13.713Z,61.91
2023-01-13T03:10:13.714Z,62.59
2023-01-13T03:11:13.693Z,63.02
2023-01-13T03:12:13.701Z,64.11
2023-01-13T03:13:13.677Z,62.19
2023-01-13T03:14:13.662Z,63.01
2023-01-13T03:15:13.671Z,63.32
2023-01-13T03:16:13.732Z,64.18
2023-01-13T03:17:13.651Z,62.48
2023-01-13T03:18:13.615Z,63.83
2023-01-13T03:19:13.664Z,62.76
2023-01-13T03:20:13.616Z,63.56
2023-01-13T03:21:13.594Z,64.91
2023-01-13T03:22:13.600Z,63.39
2023-01-13T03:23:13.571Z,65.16
2023-01-13T03:24:13.555Z,69.25
2023-01-13T03:25:13.550Z,68.87
2023-01-13T03:26:13.530Z,69.92
2023-01-13T03:27:13.554Z,70.48
2023-01-13T03:28:13.525Z,72.57
2023-01-13T03:29:13.520Z,71.61
2023-01-13T03:30:13.497Z,70.87
2023-01-13T03:31:13.495Z,70.17
2023-01-13T03:32:13.504Z,68.54
2023-01-13T03:33:13.480Z,70.40
2023-01-13T03:34:13.458Z,69.32
2023-01-13T03:35:13.461Z,69.83
2023-01-13T03:36:13.443Z,70.01
2023-01-13T03:37:13.434Z,69.65
2023-01-13T03:38:13.451Z,67.46
2023-01-13T03:39:13.413Z,66.83
2023-01-13T03:40:13.411Z,68.25
2023-01-13T03:41:13.396Z,68.87
2023-01-13T03:42:13.388Z,68.72
2023-01-13T03:43:13.398Z,68.61
2023-01-13T03:44:13.363Z,67.98
2023-01-13T03:45:13.354Z,68.81
2023-01-13T03:46:13.367Z,70.31
2023-01-13T03:47:13.336Z,69.66
2023-01-13T03:48:13.338Z,72.35
2023-01-13T03:49:13.336Z,71.91
2023-01-13T03:50:13.318Z,69.61
2023-01-13T03:51:13.299Z,70.05
2023-01-13T03:52:13.314Z,73.50
2023-01-13T03:53:13.297Z,70.64
2023-01-13T03:54:13.262Z,69.01
2023-01-13T03:55:13.256Z,70.40
2023-01-13T03:56:13.256Z,69.29
2023-01-13T03:57:13.251Z,68.51
2023-01-13T03:58:13.295Z,70.13
2023-01-13T03:59:13.215Z,68.65
2023-01-13T04:00:13.210Z,69.71
2023-01-13T04:01:13.348Z,70.01
2023-01-13T04:02:13.319Z,69.69
2023-01-13T04:03:13.205Z,68.41
2023-01-13T04:04:13.170Z,69.05
2023-01-13T04:05:13.157Z,68.22
2023-01-13T04:06:13.146Z,68.44
2023-01-13T04:07:13.132Z,70.07
2023-01-13T04:08:13.179Z,68.16
2023-01-13T04:09:13.124Z,68.83
2023-01-13T04:10:13.112Z,69.66
2023-01-13T04:11:13.135Z,68.24
2023-01-13T04:12:13.088Z,69.75
2023-01-13T04:13:13.102Z,69.91
2023-01-13T04:14:13.058Z,69.34
2023-01-13T04:15:13.066Z,69.35
2023-01-13T04:16:13.077Z,68.85
2023-01-13T04:17:13.044Z,69.36
2023-01-13T04:18:13.043Z,69.69
2023-01-13T04:19:13.015Z,69.80
2023-01-13T04:20:13.007Z,70.50
2023-01-13T04:21:13.001Z,69.81
2023-01-13T04:22:12.984Z,68.50
2023-01-13T04:23:12.994Z,69.25
2023-01-13T04:24:12.966Z,68.43
2023-01-13T04:25:12.956Z,69.22
2023-01-13T04:26:12.936Z,69.92
2023-01-13T04:27:12.935Z,68.97
2023-01-13T04:28:12.943Z,69.24
2023-01-13T04:29:15.463Z,68.06
2023-01-13T04:30:13.901Z,68.25
2023-01-13T04:31:12.969Z,67.94
2023-01-13T04:32:12.885Z,68.91
2023-01-13T04:33:12.897Z,68.89
2023-01-13T04:34:12.885Z,69.66
2023-01-13T04:35:12.862Z,69.20
2023-01-13T04:36:12.841Z,68.76
2023-01-13T04:37:12.831Z,69.80
2023-01-13T04:38:12.858Z,70.72
2023-01-13T04:39:12.817Z,69.86
2023-01-13T04:40:12.806Z,70.29
2023-01-13T04:41:12.794Z,72.01
2023-01-13T04:42:12.782Z,71.03
2023-01-13T04:43:12.801Z,70.46
2023-01-13T04:44:12.773Z,69.68
2023-01-13T04:45:12.761Z,70.05
2023-01-13T04:46:12.764Z,69.76
2023-01-13T04:47:12.756Z,68.09
2023-01-13T04:48:12.758Z,68.19
2023-01-13T04:49:12.711Z,69.03
2023-01-13T04:50:12.729Z,68.92
2023-01-13T04:51:12.689Z,70.07
2023-01-13T04:54:53.543Z,68.86
2023-01-13T04:55:53.536Z,69.16
2023-01-13T04:56:53.516Z,68.99
2023-01-13T04:57:53.536Z,68.07
2023-01-13T04:58:53.503Z,67.74
2023-01-13T04:59:53.485Z,66.71
2023-01-13T05:00:53.486Z,66.75
2023-01-13T05:01:53.549Z,67.03
2023-01-13T05:02:54.597Z,67.34
2023-01-13T05:03:54.567Z,68.37
2023-01-13T05:04:54.604Z,67.71
2023-01-13T05:05:54.559Z,67.61
2023-01-13T05:06:54.535Z,66.68
2023-01-13T05:07:54.553Z,66.80
2023-01-13T05:08:54.527Z,66.60
2023-01-13T05:09:54.514Z,67.92
2023-01-13T05:10:54.500Z,66.28
2023-01-13T05:11:54.491Z,67.39
2023-01-13T05:12:54.495Z,65.73
2023-01-13T05:13:54.464Z,66.12
2023-01-13T05:14:54.462Z,66.98
2023-01-13T05:15:54.458Z,66.28
2023-01-13T05:16:54.439Z,66.43
2023-01-13T05:17:54.473Z,67.08
2023-01-13T05:18:54.445Z,67.22
2023-01-13T05:19:54.400Z,66.94
2023-01-13T05:20:54.417Z,66.98
2023-01-13T05:21:54.391Z,67.74
2023-01-13T05:22:54.407Z,66.20
2023-01-13T05:23:54.364Z,67.15
2023-01-13T05:24:54.357Z,66.68
2023-01-13T05:25:54.347Z,65.75
2023-01-13T05:26:54.335Z,66.26
2023-01-13T05:27:54.321Z,65.17
2023-01-13T05:28:54.330Z,67.68
2023-01-13T05:29:54.311Z,67.92
2023-01-13T05:30:54.318Z,66.69
2023-01-13T05:31:54.303Z,67.34
2023-01-13T05:32:54.311Z,69.20
2023-01-13T05:33:54.307Z,68.44
2023-01-13T05:34:54.252Z,67.73
2023-01-13T05:35:54.240Z,68.64
2023-01-13T05:36:54.229Z,66.99
2023-01-13T05:37:54.224Z,68.67
2023-01-13T05:38:54.243Z,68.57
2023-01-13T05:39:54.194Z,68.13
2023-01-13T05:40:54.192Z,67.43
2023-01-13T05:41:54.186Z,68.31
2023-01-13T05:42:54.171Z,67.65
2023-01-13T05:43:54.173Z,68.00
2023-01-13T05:44:54.148Z,67.96
2023-01-13T05:45:54.147Z,68.43
2023-01-13T05:46:54.173Z,66.77
2023-01-13T05:47:54.114Z,67.38
2023-01-13T05:48:54.130Z,67.11
2023-01-13T05:49:54.107Z,68.78
2023-01-13T05:50:54.122Z,68.01
2023-01-13T05:51:54.071Z,67.80
2023-01-13T05:52:54.066Z,67.66
2023-01-13T05:53:54.083Z,67.07
2023-01-13T05:54:54.043Z,67.53
2023-01-13T05:55:54.037Z,66.86
2023-01-13T05:56:54.025Z,66.66
2023-01-13T05:57:54.025Z,66.09
2023-01-13T05:58:54.759Z,67.13
2023-01-13T05:59:53.982Z,67.69
2023-01-13T06:00:54.014Z,66.38
2023-01-13T06:01:53.974Z,68.08
2023-01-13T06:02:54.009Z,67.09
2023-01-13T06:03:53.963Z,67.25
2023-01-13T06:04:53.951Z,66.63
2023-01-13T06:05:53.930Z,67.23
2023-01-13T06:06:53.918Z,67.04
2023-01-13T06:07:53.910Z,66.08
2023-01-13T06:08:53.929Z,67.28
2023-01-13T06:09:53.895Z,67.33
2023-01-13T06:10:53.884Z,66.17
2023-01-13T06:11:53.867Z,66.73
2023-01-13T06:12:53.878Z,66.35
2023-01-13T06:13:53.873Z,68.01
2023-01-13T06:14:53.844Z,65.65
2023-01-13T06:15:53.863Z,67.51
2023-01-13T06:16:53.824Z,68.36
2023-01-13T06:17:53.839Z,67.58
2023-01-13T06:18:53.829Z,67.25
2023-01-13T06:19:53.790Z,68.17
2023-01-13T06:20:53.786Z,67.80
2023-01-13T06:21:53.770Z,67.78
2023-01-13T06:22:53.784Z,68.44
2023-01-13T06:23:53.776Z,68.02
2023-01-13T06:24:53.747Z,68.26
2023-01-13T06:25:53.730Z,66.58
2023-01-13T06:26:53.719Z,67.98
2023-01-13T06:27:53.708Z,67.64
2023-01-13T06:28:53.713Z,67.55
2023-01-13T06:29:53.687Z,68.18
2023-01-13T06:30:53.678Z,68.27
2023-01-13T06:31:53.709Z,68.75
2023-01-13T06:32:53.649Z,68.01
2023-01-13T06:33:53.656Z,68.35
2023-01-13T06:34:53.626Z,67.87
2023-01-13T06:35:53.623Z,68.81
2023-01-13T06:36:53.617Z,68.60
2023-01-13T06:37:53.601Z,69.17
2023-01-13T06:38:53.612Z,69.64
2023-01-13T06:39:53.576Z,69.00
2023-01-13T06:40:53.568Z,69.75
2023-01-13T06:41:53.562Z,70.02
2023-01-13T06:42:53.541Z,68.98
2023-01-13T06:43:53.557Z,69.04
2023-01-13T06:44:53.533Z,67.57
2023-01-13T06:45:53.525Z,68.00
2023-01-13T06:46:53.599Z,68.87
2023-01-13T06:47:53.496Z,69.40
2023-01-13T06:48:53.503Z,68.65
2023-01-13T06:49:53.477Z,68.22
2023-01-13T06:50:53.471Z,68.76
2023-01-13T06:51:53.452Z,68.40
2023-01-13T06:52:53.445Z,68.37
2023-01-13T06:53:53.453Z,67.45
2023-01-13T06:54:53.416Z,66.68
2023-01-13T06:55:53.401Z,68.04
2023-01-13T06:56:53.395Z,67.99
2023-01-13T06:57:53.378Z,68.37
2023-01-13T06:58:53.405Z,66.93
2023-01-13T06:59:53.360Z,67.14
2023-01-13T07:00:53.441Z,67.63
2023-01-13T07:01:53.605Z,67.04
2023-01-13T07:02:53.402Z,67.89
2023-01-13T07:03:53.330Z,66.50
2023-01-13T07:04:53.297Z,66.61
2023-01-13T07:05:53.291Z,67.42
2023-01-13T07:06:53.272Z,66.37
2023-01-13T07:07:53.269Z,67.28
2023-01-13T07:08:53.279Z,67.18
2023-01-13T07:09:53.249Z,67.77
2023-01-13T07:10:53.264Z,68.48
2023-01-13T07:11:53.235Z,66.84
2023-01-13T07:12:53.210Z,67.47
2023-01-13T07:13:53.225Z,67.80
2023-01-13T07:14:53.179Z,65.64
2023-01-13T07:15:53.172Z,66.51
2023-01-13T07:16:53.171Z,66.72
2023-01-13T07:17:53.157Z,67.24
2023-01-13T07:18:53.168Z,66.77
2023-01-13T07:19:53.197Z,67.42
2023-01-13T07:20:53.120Z,66.89
2023-01-13T07:21:53.131Z,67.26
2023-01-13T07:22:53.099Z,67.64
2023-01-13T07:23:53.119Z,67.82
2023-01-13T07:24:53.077Z,66.40
2023-01-13T07:25:53.055Z,66.05
2023-01-13T07:26:53.026Z,67.69
2023-01-13T07:27:53.036Z,67.56
2023-01-13T07:28:53.041Z,66.24
2023-01-13T07:29:53.016Z,66.41
2023-01-13T07:30:53.012Z,66.51
2023-01-13T07:31:53.022Z,65.75
2023-01-13T07:32:52.994Z,66.10
2023-01-13T07:33:53.007Z,65.65
2023-01-13T07:34:52.952Z,65.88
2023-01-13T07:35:52.955Z,64.92
2023-01-13T07:36:52.938Z,66.42
2023-01-13T07:37:52.931Z,66.46
2023-01-13T07:38:54.832Z,66.51
2023-01-13T07:39:52.903Z,67.14
2023-01-13T07:40:52.903Z,67.41
2023-01-13T07:41:52.895Z,66.63
2023-01-13T07:42:52.857Z,66.89
2023-01-13T07:43:52.881Z,67.25
2023-01-13T07:44:52.856Z,67.08
2023-01-13T07:45:52.909Z,65.38
2023-01-13T07:46:52.827Z,66.19
2023-01-13T07:47:52.820Z,66.53
2023-01-13T07:48:52.824Z,65.71
2023-01-13T07:49:52.815Z,64.81
2023-01-13T07:50:52.783Z,66.38
2023-01-13T07:51:52.800Z,67.32
2023-01-13T07:52:52.760Z,65.93
2023-01-13T07:53:52.763Z,66.07
2023-01-13T07:54:52.743Z,66.64
2023-01-13T07:55:52.727Z,65.85
2023-01-13T07:56:52.712Z,65.70
2023-01-13T07:57:52.699Z,67.24
2023-01-13T07:58:52.716Z,67.15
2023-01-13T07:59:52.719Z,65.12
2023-01-13T08:00:52.805Z,65.07
2023-01-13T08:01:52.859Z,66.00
2023-01-13T08:02:52.683Z,66.10
2023-01-13T08:03:52.632Z,66.30
2023-01-13T08:04:52.642Z,65.89
2023-01-13T08:05:52.602Z,67.51
2023-01-13T08:06:52.614Z,65.86
2023-01-13T08:07:52.586Z,66.28
2023-01-13T08:08:52.579Z,66.11
2023-01-13T08:09:52.586Z,66.25
2023-01-13T08:10:52.581Z,66.39
2023-01-13T08:11:52.536Z,66.14
2023-01-13T08:12:57.001Z,66.14
2023-01-13T08:13:52.509Z,65.92
2023-01-13T08:14:52.525Z,65.82
2023-01-13T08:15:52.511Z,67.28
2023-01-13T08:16:52.523Z,66.42
2023-01-13T08:17:52.473Z,65.60
2023-01-13T08:18:52.470Z,66.61
2023-01-13T08:19:52.478Z,66.89
2023-01-13T08:20:52.555Z,66.09
2023-01-13T08:21:52.443Z,66.29
2023-01-13T08:22:52.429Z,67.30
2023-01-13T08:23:52.409Z,66.69
2023-01-13T08:24:52.418Z,67.75
2023-01-13T08:25:52.385Z,67.23
2023-01-13T08:26:52.380Z,67.75
2023-01-13T08:27:52.367Z,66.97
2023-01-13T08:28:52.391Z,66.69
2023-01-13T08:29:52.361Z,66.57
2023-01-13T08:30:52.388Z,66.98
2023-01-13T08:31:52.334Z,68.07
2023-01-13T08:32:52.313Z,68.10
2023-01-13T08:33:52.302Z,68.05
2023-01-13T08:34:52.326Z,66.90
2023-01-13T08:35:52.277Z,66.91
2023-01-13T08:36:52.278Z,67.66
2023-01-13T08:37:52.265Z,67.80
2023-01-13T08:38:52.247Z,67.08
2023-01-13T08:39:52.238Z,67.62
2023-01-13T08:40:52.219Z,67.36
2023-01-13T08:41:52.217Z,67.98
2023-01-13T08:42:52.193Z,69.81
2023-01-13T08:43:52.214Z,67.21
2023-01-13T08:44:52.202Z,66.10
2023-01-13T08:45:52.187Z,66.66
2023-01-13T08:46:52.151Z,69.29
2023-01-13T08:47:52.135Z,69.26
2023-01-13T08:48:52.165Z,69.24
2023-01-13T08:49:52.138Z,67.36
2023-01-13T08:50:52.102Z,67.10
2023-01-13T08:51:52.113Z,67.68
2023-01-13T08:52:52.726Z,66.97
2023-01-13T08:53:52.066Z,67.17
2023-01-13T08:54:52.091Z,66.77
2023-01-13T08:55:52.055Z,66.73
2023-01-13T08:56:52.083Z,67.21
2023-01-13T08:57:53.078Z,66.89
2023-01-13T08:58:52.050Z,67.07
2023-01-13T08:59:52.044Z,66.98
2023-01-13T09:00:52.205Z,66.43
2023-01-13T09:01:52.066Z,65.93
2023-01-13T09:02:51.969Z,67.30
2023-01-13T09:03:51.960Z,67.17
2023-01-13T09:04:51.964Z,67.14
2023-01-13T09:05:51.948Z,67.56
2023-01-13T09:06:51.939Z,68.31
2023-01-13T09:07:51.931Z,67.30
2023-01-13T09:08:52.722Z,65.67
2023-01-13T09:09:51.903Z,66.34
2023-01-13T09:10:51.878Z,66.45
2023-01-13T09:11:51.873Z,66.96
2023-01-13T09:12:51.877Z,66.43
2023-01-13T09:13:51.866Z,66.94
2023-01-13T09:14:51.858Z,67.14
2023-01-13T09:15:51.911Z,66.99
2023-01-13T09:16:51.817Z,66.20
2023-01-13T09:17:51.819Z,66.97
2023-01-13T09:18:51.804Z,66.85
2023-01-13T09:19:51.822Z,66.90
2023-01-13T09:20:51.840Z,66.01
2023-01-13T09:21:51.761Z,68.29
2023-01-13T09:22:51.759Z,67.45
2023-01-13T09:23:51.745Z,67.61
2023-01-13T09:24:51.776Z,67.22
2023-01-13T09:25:51.732Z,67.59
2023-01-13T09:26:51.720Z,67.23
2023-01-13T09:27:51.714Z,67.30
2023-01-13T09:28:51.697Z,66.84
2023-01-13T09:29:51.712Z,67.45
2023-01-13T09:30:51.692Z,67.10
2023-01-13T09:31:51.669Z,66.80
2023-01-13T09:32:51.655Z,66.81
2023-01-13T09:33:51.639Z,67.09
2023-01-13T09:34:51.657Z,66.53
2023-01-13T09:35:52.628Z,66.05
2023-01-13T09:36:51.642Z,67.38
2023-01-13T09:37:51.603Z,66.22
2023-01-13T09:38:51.592Z,67.04
2023-01-13T09:39:51.608Z,65.72
2023-01-13T09:40:51.578Z,67.04
2023-01-13T09:41:51.563Z,66.64
2023-01-13T09:42:51.552Z,65.68
2023-01-13T09:43:51.547Z,67.08
2023-01-13T09:44:51.566Z,67.25
2023-01-13T09:45:51.527Z,67.65
2023-01-13T09:46:51.515Z,68.39
2023-01-13T09:47:51.501Z,68.23
2023-01-13T09:48:51.494Z,67.51
2023-01-13T09:49:51.492Z,67.27
2023-01-13T09:50:51.485Z,67.15
2023-01-13T09:51:51.465Z,67.13
2023-01-13T09:52:51.473Z,67.11
2023-01-13T09:53:51.439Z,66.95
2023-01-13T09:54:51.456Z,67.75
2023-01-13T09:55:51.430Z,67.17
2023-01-13T09:56:51.413Z,67.60
2023-01-13T09:57:51.388Z,66.62
2023-01-13T09:58:51.387Z,65.96
2023-01-13T09:59:51.397Z,67.42
2023-01-13T10:00:51.369Z,68.21
2023-01-13T10:01:51.386Z,66.90
2023-01-13T10:02:51.355Z,67.80
2023-01-13T10:03:51.411Z,68.29
2023-01-13T10:04:51.429Z,67.29
2023-01-13T10:05:51.310Z,67.64
2023-01-13T10:06:51.315Z,67.76
2023-01-13T10:07:51.306Z,68.74
2023-01-13T10:08:51.300Z,66.78
2023-01-13T10:09:51.292Z,66.95
2023-01-13T10:10:51.268Z,68.32
2023-01-13T10:11:51.263Z,67.74
2023-01-13T10:12:51.242Z,67.43
2023-01-13T10:13:51.267Z,67.11
2023-01-13T10:14:51.245Z,67.28
2023-01-13T10:15:51.230Z,67.30
2023-01-13T10:16:51.215Z,67.71
2023-01-13T10:17:51.187Z,67.64
2023-01-13T10:18:51.189Z,68.61
2023-01-13T10:19:51.197Z,68.66
2023-01-13T10:20:51.168Z,67.72
2023-01-13T10:21:51.149Z,69.39
2023-01-13T10:22:51.147Z,70.70
2023-01-13T10:23:51.132Z,69.23
2023-01-13T10:24:51.145Z,68.19
2023-01-13T10:25:51.145Z,68.88
2023-01-13T10:26:51.109Z,68.53
2023-01-13T10:27:51.091Z,67.79
2023-01-13T10:28:52.077Z,69.08
2023-01-13T10:29:51.098Z,68.84
2023-01-13T10:30:51.070Z,67.45
2023-01-13T10:31:51.059Z,68.38
2023-01-13T10:32:51.060Z,69.45
2023-01-13T10:33:51.035Z,69.25
2023-01-13T10:34:51.074Z,68.61
2023-01-13T10:35:51.018Z,68.42
2023-01-13T10:36:51.011Z,69.39
2023-01-13T10:37:50.994Z,69.92
2023-01-13T10:38:50.988Z,69.40
2023-01-13T10:39:51.001Z,68.22
2023-01-13T10:40:50.970Z,68.45
2023-01-13T10:41:50.949Z,67.53
2023-01-13T10:42:50.942Z,69.44
2023-01-13T10:43:50.938Z,67.91
2023-01-13T10:44:50.967Z,67.74
2023-01-13T10:45:50.904Z,66.93
2023-01-13T10:46:52.023Z,66.02
2023-01-13T10:47:50.889Z,66.45
2023-01-13T10:48:50.877Z,66.99
2023-01-13T10:49:50.897Z,67.48
2023-01-13T10:50:50.875Z,67.97
2023-01-13T10:51:50.974Z,68.45
2023-01-13T10:53:23.239Z,67.93
2023-01-13T10:53:50.879Z,69.13
2023-01-13T10:54:50.840Z,67.49
2023-01-13T10:55:52.959Z,67.39
2023-01-13T10:56:50.807Z,67.50
2023-01-13T10:57:50.795Z,67.34
2023-01-13T10:58:50.783Z,67.31
2023-01-13T10:59:50.778Z,67.34
2023-01-13T11:00:50.793Z,66.08
2023-01-13T11:01:53.739Z,66.99
2023-01-13T11:02:50.764Z,67.56
2023-01-13T11:03:50.731Z,66.06
2023-01-13T11:04:50.773Z,66.77
2023-01-13T11:05:50.726Z,67.76
2023-01-13T11:06:50.703Z,66.97
2023-01-13T11:07:50.694Z,67.17
2023-01-13T11:08:50.708Z,66.86
2023-01-13T11:09:50.670Z,67.32
2023-01-13T11:10:50.693Z,68.83
2023-01-13T11:11:50.641Z,69.28
2023-01-13T11:12:53.259Z,67.03
2023-01-13T11:13:50.638Z,66.85
2023-01-13T11:14:50.632Z,66.87
2023-01-13T11:15:50.638Z,66.86
2023-01-13T11:16:53.717Z,67.70
2023-01-13T11:17:51.595Z,67.68
2023-01-13T11:18:50.582Z,68.17
2023-01-13T11:19:50.560Z,67.85
2023-01-13T11:20:50.607Z,67.28
2023-01-13T11:21:50.561Z,67.37
2023-01-13T11:22:50.546Z,68.10
2023-01-13T11:23:50.530Z,67.42
2023-01-13T11:24:51.008Z,67.75
2023-01-13T11:25:51.544Z,69.02
2023-01-13T11:26:50.502Z,67.54
2023-01-13T11:27:50.487Z,67.60
2023-01-13T11:28:50.477Z,69.18
2023-01-13T11:29:50.474Z,68.69
2023-01-13T11:30:50.907Z,67.42
2023-01-13T11:31:51.458Z,68.73
2023-01-13T11:32:50.455Z,67.57
2023-01-13T11:33:50.436Z,68.57
2023-01-13T11:34:50.429Z,67.66
2023-01-13T11:35:50.436Z,68.75
2023-01-13T11:36:50.401Z,68.91
2023-01-13T11:37:50.413Z,67.37
2023-01-13T11:38:50.384Z,68.01
2023-01-13T11:39:50.388Z,67.07
2023-01-13T11:40:50.382Z,67.49
2023-01-13T11:41:50.344Z,67.83
2023-01-13T11:42:50.343Z,68.08
2023-01-13T11:43:50.320Z,69.11
2023-01-13T11:44:50.319Z,68.62
2023-01-13T11:45:50.388Z,69.32
2023-01-13T11:46:50.362Z,69.74
2023-01-13T11:47:50.288Z,69.97
2023-01-13T11:48:50.286Z,70.02
2023-01-13T11:49:50.272Z,69.09
2023-01-13T11:50:50.281Z,68.49
2023-01-13T11:51:50.263Z,69.30
2023-01-13T11:52:50.239Z,68.72
2023-01-13T11:53:50.236Z,69.03
2023-01-13T11:54:50.233Z,69.61
2023-01-13T11:55:50.227Z,69.53
2023-01-13T11:56:50.209Z,68.42
2023-01-13T11:57:50.193Z,68.56
2023-01-13T11:58:51.317Z,68.08
2023-01-13T11:59:51.178Z,69.72
2023-01-13T12:00:50.187Z,69.30
2023-01-13T12:01:50.197Z,69.18
2023-01-13T12:02:50.188Z,68.02
2023-01-13T12:03:50.139Z,67.56
2023-01-13T12:04:50.131Z,68.21
2023-01-13T12:05:50.134Z,68.74
2023-01-13T12:06:50.107Z,69.25
2023-01-13T12:07:50.097Z,70.31
2023-01-13T12:08:50.104Z,69.68
2023-01-13T12:09:50.081Z,69.93
2023-01-13T12:10:50.094Z,68.58
2023-01-13T12:11:50.060Z,68.88
2023-01-13T12:12:50.055Z,68.47
2023-01-13T12:13:50.051Z,69.03
2023-01-13T12:14:50.028Z,68.38
2023-01-13T12:15:50.028Z,67.83
2023-01-13T12:16:50.043Z,67.33
2023-01-13T12:17:50.012Z,68.21
2023-01-13T12:18:49.988Z,68.61
2023-01-13T12:19:49.976Z,70.00
2023-01-13T12:20:49.992Z,69.92
2023-01-13T12:21:49.958Z,71.82
2023-01-13T12:22:49.952Z,71.15
2023-01-13T12:23:49.927Z,70.67
2023-01-13T12:24:49.927Z,70.24
2023-01-13T12:25:49.940Z,70.65
2023-01-13T12:26:49.912Z,71.50
2023-01-13T12:27:49.893Z,71.33
2023-01-13T12:28:49.953Z,69.82
2023-01-13T12:29:49.875Z,71.08
2023-01-13T12:30:49.892Z,70.19
2023-01-13T12:31:50.005Z,68.06
2023-01-13T12:32:49.846Z,68.42
2023-01-13T12:33:49.835Z,67.64
2023-01-13T12:34:49.837Z,68.43
2023-01-13T12:35:49.830Z,67.97
2023-01-13T12:36:49.807Z,67.72
2023-01-13T12:37:49.790Z,68.44
2023-01-13T12:38:49.789Z,68.01
2023-01-13T12:39:49.776Z,68.66
2023-01-13T12:40:49.792Z,68.21
2023-01-13T12:41:49.758Z,68.55
2023-01-13T12:42:49.861Z,68.64
2023-01-13T12:43:49.734Z,68.63
2023-01-13T12:44:49.728Z,69.22
2023-01-13T12:45:50.767Z,69.40
2023-01-13T12:46:49.711Z,70.21
2023-01-13T12:47:49.692Z,69.99
2023-01-13T12:48:49.691Z,69.40
2023-01-13T12:49:49.671Z,70.10
2023-01-13T12:50:49.693Z,71.13
2023-01-13T12:51:49.677Z,69.88
2023-01-13T12:52:49.665Z,69.41
2023-01-13T12:53:49.644Z,69.88
2023-01-13T12:54:49.634Z,70.18